sensor_id;sensor_type;location;lat;lon;timestamp;P1;durP1;ratioP1;P2;durP2;ratioP2
37647;SDS011;23490;53.656;10.076;2023-05-13T00:00:10;10.02;;;5.25;;
37647;SDS011;23490;53.656;10.076;2023-05-13T00:02:36;8.20;;;4.55;;
37647;SDS011;23490;53.656;10.076;2023-05-13T00:05:01;8.63;;;4.82;;
37647;SDS011;23490;53.656;10.076;2023-05-13T00:07:26;10.43;;;5.43;;
37647;SDS011;23490;53.656;10.076;2023-05-13T00:09:52;11.35;;;5.32;;
37647;SDS011;23490;53.656;10.076;2023-05-13T00:12:17;11.40;;;5.00;;
37647;SDS011;23490;53.656;10.076;2023-05-13T00:14:43;9.13;;;4.85;;
37647;SDS011;23490;53.656;10.076;2023-05-13T00:17:08;10.82;;;4.93;;
37647;SDS011;23490;53.656;10.076;2023-05-13T00:19:33;8.10;;;5.05;;
37647;SDS011;23490;53.656;10.076;2023-05-13T00:21:58;7.65;;;5.15;;
37647;SDS011;23490;53.656;10.076;2023-05-13T00:24:24;11.35;;;5.03;;
37647;SDS011;23490;53.656;10.076;2023-05-13T00:26:49;9.38;;;4.88;;
37647;SDS011;23490;53.656;10.076;2023-05-13T00:29:14;11.35;;;5.88;;
37647;SDS011;23490;53.656;10.076;2023-05-13T00:31:40;17.58;;;5.82;;
37647;SDS011;23490;53.656;10.076;2023-05-13T00:34:05;8.88;;;5.38;;
37647;SDS011;23490;53.656;10.076;2023-05-13T00:36:31;11.55;;;5.07;;
37647;SDS011;23490;53.656;10.076;2023-05-13T00:38:56;11.23;;;5.25;;
37647;SDS011;23490;53.656;10.076;2023-05-13T00:41:22;10.18;;;5.13;;
37647;SDS011;23490;53.656;10.076;2023-05-13T00:43:47;10.73;;;5.30;;
37647;SDS011;23490;53.656;10.076;2023-05-13T00:46:13;10.93;;;5.75;;
37647;SDS011;23490;53.656;10.076;2023-05-13T00:48:39;11.20;;;5.70;;
37647;SDS011;23490;53.656;10.076;2023-05-13T00:51:04;9.13;;;5.88;;
37647;SDS011;23490;53.656;10.076;2023-05-13T00:53:31;12.80;;;6.35;;
37647;SDS011;23490;53.656;10.076;2023-05-13T00:55:57;9.13;;;5.53;;
37647;SDS011;23490;53.656;10.076;2023-05-13T00:58:23;11.05;;;5.88;;
37647;SDS011;23490;53.656;10.076;2023-05-13T01:00:55;11.18;;;5.57;;
37647;SDS011;23490;53.656;10.076;2023-05-13T01:06:46;11.15;;;5.90;;
37647;SDS011;23490;53.656;10.076;2023-05-13T01:12:11;10.10;;;5.65;;
37647;SDS011;23490;53.656;10.076;2023-05-13T01:15:02;10.27;;;5.60;;
37647;SDS011;23490;53.656;10.076;2023-05-13T01:17:56;14.40;;;6.28;;
37647;SDS011;23490;53.656;10.076;2023-05-13T01:20:21;13.52;;;6.50;;
37647;SDS011;23490;53.656;10.076;2023-05-13T01:22:47;11.35;;;6.30;;
37647;SDS011;23490;53.656;10.076;2023-05-13T01:25:13;8.68;;;5.95;;
37647;SDS011;23490;53.656;10.076;2023-05-13T01:27:38;8.18;;;5.45;;
37647;SDS011;23490;53.656;10.076;2023-05-13T01:30:04;11.30;;;5.85;;
37647;SDS011;23490;53.656;10.076;2023-05-13T01:32:30;9.52;;;5.72;;
37647;SDS011;23490;53.656;10.076;2023-05-13T01:34:57;8.82;;;5.88;;
37647;SDS011;23490;53.656;10.076;2023-05-13T01:37:23;11.27;;;6.15;;
37647;SDS011;23490;53.656;10.076;2023-05-13T01:39:48;12.15;;;6.05;;
37647;SDS011;23490;53.656;10.076;2023-05-13T01:42:15;13.73;;;6.40;;
37647;SDS011;23490;53.656;10.076;2023-05-13T01:44:40;9.63;;;6.60;;
37647;SDS011;23490;53.656;10.076;2023-05-13T01:47:05;10.60;;;6.57;;
37647;SDS011;23490;53.656;10.076;2023-05-13T01:49:31;11.23;;;6.45;;
37647;SDS011;23490;53.656;10.076;2023-05-13T01:51:56;12.82;;;6.57;;
37647;SDS011;23490;53.656;10.076;2023-05-13T01:54:21;13.35;;;6.57;;
37647;SDS011;23490;53.656;10.076;2023-05-13T01:56:47;10.15;;;6.25;;
37647;SDS011;23490;53.656;10.076;2023-05-13T01:59:12;12.05;;;5.90;;
37647;SDS011;23490;53.656;10.076;2023-05-13T02:01:37;12.27;;;6.95;;
37647;SDS011;23490;53.656;10.076;2023-05-13T02:04:04;9.35;;;5.93;;
37647;SDS011;23490;53.656;10.076;2023-05-13T02:06:30;9.55;;;6.38;;
37647;SDS011;23490;53.656;10.076;2023-05-13T02:08:56;10.95;;;6.90;;
37647;SDS011;23490;53.656;10.076;2023-05-13T02:11:21;11.95;;;7.20;;
37647;SDS011;23490;53.656;10.076;2023-05-13T02:13:47;9.93;;;6.32;;
37647;SDS011;23490;53.656;10.076;2023-05-13T02:16:15;11.10;;;6.95;;
37647;SDS011;23490;53.656;10.076;2023-05-13T02:18:42;13.15;;;6.80;;
37647;SDS011;23490;53.656;10.076;2023-05-13T02:21:08;12.73;;;6.75;;
37647;SDS011;23490;53.656;10.076;2023-05-13T02:23:33;12.02;;;7.00;;
37647;SDS011;23490;53.656;10.076;2023-05-13T02:25:58;10.10;;;6.80;;
37647;SDS011;23490;53.656;10.076;2023-05-13T02:28:24;10.80;;;6.18;;
37647;SDS011;23490;53.656;10.076;2023-05-13T02:30:49;16.58;;;7.93;;
37647;SDS011;23490;53.656;10.076;2023-05-13T02:33:15;12.70;;;7.28;;
37647;SDS011;23490;53.656;10.076;2023-05-13T02:35:40;14.55;;;7.40;;
37647;SDS011;23490;53.656;10.076;2023-05-13T02:38:08;11.48;;;7.30;;
37647;SDS011;23490;53.656;10.076;2023-05-13T02:40:33;12.93;;;6.97;;
37647;SDS011;23490;53.656;10.076;2023-05-13T02:42:59;10.80;;;7.13;;
37647;SDS011;23490;53.656;10.076;2023-05-13T02:45:24;15.88;;;7.68;;
37647;SDS011;23490;53.656;10.076;2023-05-13T02:47:50;14.07;;;7.93;;
37647;SDS011;23490;53.656;10.076;2023-05-13T02:50:15;13.80;;;7.43;;
37647;SDS011;23490;53.656;10.076;2023-05-13T02:52:40;14.88;;;7.18;;
37647;SDS011;23490;53.656;10.076;2023-05-13T02:55:06;15.95;;;7.63;;
37647;SDS011;23490;53.656;10.076;2023-05-13T02:57:32;11.32;;;7.95;;
37647;SDS011;23490;53.656;10.076;2023-05-13T02:59:58;12.48;;;8.10;;
37647;SDS011;23490;53.656;10.076;2023-05-13T03:02:23;15.57;;;8.88;;
37647;SDS011;23490;53.656;10.076;2023-05-13T03:04:49;13.02;;;8.27;;
37647;SDS011;23490;53.656;10.076;2023-05-13T03:07:14;22.30;;;9.20;;
37647;SDS011;23490;53.656;10.076;2023-05-13T03:09:40;17.90;;;8.90;;
37647;SDS011;23490;53.656;10.076;2023-05-13T03:12:06;12.27;;;8.25;;
37647;SDS011;23490;53.656;10.076;2023-05-13T03:14:32;14.32;;;9.30;;
37647;SDS011;23490;53.656;10.076;2023-05-13T03:17:04;14.48;;;9.45;;
37647;SDS011;23490;53.656;10.076;2023-05-13T03:19:30;12.18;;;8.63;;
37647;SDS011;23490;53.656;10.076;2023-05-13T03:21:55;17.27;;;9.43;;
37647;SDS011;23490;53.656;10.076;2023-05-13T03:24:20;11.90;;;8.68;;
37647;SDS011;23490;53.656;10.076;2023-05-13T03:26:45;14.02;;;8.63;;
37647;SDS011;23490;53.656;10.076;2023-05-13T03:29:11;14.77;;;9.70;;
37647;SDS011;23490;53.656;10.076;2023-05-13T03:31:36;13.77;;;8.68;;
37647;SDS011;23490;53.656;10.076;2023-05-13T03:34:02;16.77;;;10.52;;
37647;SDS011;23490;53.656;10.076;2023-05-13T03:36:27;23.63;;;10.48;;
37647;SDS011;23490;53.656;10.076;2023-05-13T03:38:52;16.42;;;10.40;;
37647;SDS011;23490;53.656;10.076;2023-05-13T03:41:18;14.23;;;9.48;;
37647;SDS011;23490;53.656;10.076;2023-05-13T03:43:43;19.77;;;10.40;;
37647;SDS011;23490;53.656;10.076;2023-05-13T03:46:09;15.10;;;9.20;;
37647;SDS011;23490;53.656;10.076;2023-05-13T03:48:35;13.48;;;8.50;;
37647;SDS011;23490;53.656;10.076;2023-05-13T03:51:00;16.13;;;10.45;;
37647;SDS011;23490;53.656;10.076;2023-05-13T03:53:26;16.30;;;9.55;;
37647;SDS011;23490;53.656;10.076;2023-05-13T03:55:51;16.77;;;10.20;;
37647;SDS011;23490;53.656;10.076;2023-05-13T03:58:16;16.67;;;10.10;;
37647;SDS011;23490;53.656;10.076;2023-05-13T04:00:43;15.57;;;10.48;;
37647;SDS011;23490;53.656;10.076;2023-05-13T04:03:11;17.75;;;9.98;;
37647;SDS011;23490;53.656;10.076;2023-05-13T04:05:37;17.27;;;10.75;;
37647;SDS011;23490;53.656;10.076;2023-05-13T04:08:02;16.70;;;11.20;;
37647;SDS011;23490;53.656;10.076;2023-05-13T04:10:28;15.18;;;10.50;;
37647;SDS011;23490;53.656;10.076;2023-05-13T04:12:53;18.45;;;10.75;;
37647;SDS011;23490;53.656;10.076;2023-05-13T04:15:18;16.88;;;10.55;;
37647;SDS011;23490;53.656;10.076;2023-05-13T04:17:44;16.98;;;10.48;;
37647;SDS011;23490;53.656;10.076;2023-05-13T04:20:09;17.40;;;11.88;;
37647;SDS011;23490;53.656;10.076;2023-05-13T04:22:35;19.85;;;11.80;;
37647;SDS011;23490;53.656;10.076;2023-05-13T04:25:00;22.73;;;11.38;;
37647;SDS011;23490;53.656;10.076;2023-05-13T04:27:25;15.57;;;10.95;;
37647;SDS011;23490;53.656;10.076;2023-05-13T04:29:51;15.48;;;10.30;;
37647;SDS011;23490;53.656;10.076;2023-05-13T04:32:16;18.67;;;11.15;;
37647;SDS011;23490;53.656;10.076;2023-05-13T04:34:48;16.73;;;11.32;;
37647;SDS011;23490;53.656;10.076;2023-05-13T04:37:14;16.50;;;11.57;;
37647;SDS011;23490;53.656;10.076;2023-05-13T04:39:40;17.13;;;11.20;;
37647;SDS011;23490;53.656;10.076;2023-05-13T04:42:05;16.08;;;11.52;;
37647;SDS011;23490;53.656;10.076;2023-05-13T04:44:31;17.85;;;11.93;;
37647;SDS011;23490;53.656;10.076;2023-05-13T04:46:57;17.13;;;11.82;;
37647;SDS011;23490;53.656;10.076;2023-05-13T04:49:22;18.27;;;11.43;;
37647;SDS011;23490;53.656;10.076;2023-05-13T04:51:47;17.42;;;12.43;;
37647;SDS011;23490;53.656;10.076;2023-05-13T04:54:13;17.38;;;11.25;;
37647;SDS011;23490;53.656;10.076;2023-05-13T04:56:38;17.83;;;11.82;;
37647;SDS011;23490;53.656;10.076;2023-05-13T04:59:03;17.85;;;12.07;;
37647;SDS011;23490;53.656;10.076;2023-05-13T05:01:29;15.55;;;11.18;;
37647;SDS011;23490;53.656;10.076;2023-05-13T05:03:54;19.35;;;13.13;;
37647;SDS011;23490;53.656;10.076;2023-05-13T05:06:19;18.70;;;12.73;;
37647;SDS011;23490;53.656;10.076;2023-05-13T05:08:45;18.38;;;12.40;;
37647;SDS011;23490;53.656;10.076;2023-05-13T05:11:11;20.52;;;12.55;;
37647;SDS011;23490;53.656;10.076;2023-05-13T05:13:36;20.77;;;12.50;;
37647;SDS011;23490;53.656;10.076;2023-05-13T05:16:02;18.63;;;12.05;;
37647;SDS011;23490;53.656;10.076;2023-05-13T05:18:27;18.63;;;12.13;;
37647;SDS011;23490;53.656;10.076;2023-05-13T05:20:53;22.10;;;12.32;;
37647;SDS011;23490;53.656;10.076;2023-05-13T05:23:18;16.73;;;10.93;;
37647;SDS011;23490;53.656;10.076;2023-05-13T05:25:43;18.02;;;11.50;;
37647;SDS011;23490;53.656;10.076;2023-05-13T05:28:08;18.10;;;11.57;;
37647;SDS011;23490;53.656;10.076;2023-05-13T05:30:34;17.98;;;10.88;;
37647;SDS011;23490;53.656;10.076;2023-05-13T05:33:06;15.63;;;10.73;;
37647;SDS011;23490;53.656;10.076;2023-05-13T05:35:32;17.38;;;11.13;;
37647;SDS011;23490;53.656;10.076;2023-05-13T05:38:00;16.10;;;10.20;;
37647;SDS011;23490;53.656;10.076;2023-05-13T05:40:26;16.30;;;10.05;;
37647;SDS011;23490;53.656;10.076;2023-05-13T05:42:51;18.60;;;10.45;;
37647;SDS011;23490;53.656;10.076;2023-05-13T05:45:17;12.93;;;9.35;;
37647;SDS011;23490;53.656;10.076;2023-05-13T05:47:42;12.65;;;8.98;;
37647;SDS011;23490;53.656;10.076;2023-05-13T05:50:07;13.98;;;9.40;;
37647;SDS011;23490;53.656;10.076;2023-05-13T05:52:33;15.73;;;8.95;;
37647;SDS011;23490;53.656;10.076;2023-05-13T05:54:58;15.68;;;9.20;;
37647;SDS011;23490;53.656;10.076;2023-05-13T05:57:23;12.80;;;8.18;;
37647;SDS011;23490;53.656;10.076;2023-05-13T05:59:49;11.95;;;8.10;;
37647;SDS011;23490;53.656;10.076;2023-05-13T06:02:14;13.45;;;8.60;;
37647;SDS011;23490;53.656;10.076;2023-05-13T06:04:40;15.15;;;8.48;;
37647;SDS011;23490;53.656;10.076;2023-05-13T06:07:05;12.75;;;8.18;;
37647;SDS011;23490;53.656;10.076;2023-05-13T06:09:31;14.20;;;7.65;;
37647;SDS011;23490;53.656;10.076;2023-05-13T06:11:56;10.90;;;7.25;;
37647;SDS011;23490;53.656;10.076;2023-05-13T06:14:21;11.43;;;7.07;;
37647;SDS011;23490;53.656;10.076;2023-05-13T06:16:47;13.48;;;7.75;;
37647;SDS011;23490;53.656;10.076;2023-05-13T06:19:12;9.02;;;6.70;;
37647;SDS011;23490;53.656;10.076;2023-05-13T06:21:37;10.48;;;7.25;;
37647;SDS011;23490;53.656;10.076;2023-05-13T06:24:03;8.73;;;6.20;;
37647;SDS011;23490;53.656;10.076;2023-05-13T06:26:28;11.80;;;6.68;;
37647;SDS011;23490;53.656;10.076;2023-05-13T06:28:54;10.32;;;6.97;;
37647;SDS011;23490;53.656;10.076;2023-05-13T06:31:19;10.32;;;6.10;;
37647;SDS011;23490;53.656;10.076;2023-05-13T06:33:44;13.48;;;6.63;;
37647;SDS011;23490;53.656;10.076;2023-05-13T06:36:10;10.05;;;6.43;;
37647;SDS011;23490;53.656;10.076;2023-05-13T06:38:35;11.77;;;5.82;;
37647;SDS011;23490;53.656;10.076;2023-05-13T06:41:00;9.95;;;5.97;;
37647;SDS011;23490;53.656;10.076;2023-05-13T06:43:26;10.85;;;5.97;;
37647;SDS011;23490;53.656;10.076;2023-05-13T06:45:51;11.23;;;5.82;;
37647;SDS011;23490;53.656;10.076;2023-05-13T06:48:16;9.50;;;5.68;;
37647;SDS011;23490;53.656;10.076;2023-05-13T06:50:42;10.18;;;5.50;;
37647;SDS011;23490;53.656;10.076;2023-05-13T06:53:08;7.70;;;5.15;;
37647;SDS011;23490;53.656;10.076;2023-05-13T06:55:35;8.38;;;5.25;;
37647;SDS011;23490;53.656;10.076;2023-05-13T06:58:05;9.45;;;4.93;;
37647;SDS011;23490;53.656;10.076;2023-05-13T07:00:32;10.13;;;5.97;;
37647;SDS011;23490;53.656;10.076;2023-05-13T07:03:00;7.93;;;4.68;;
37647;SDS011;23490;53.656;10.076;2023-05-13T07:05:27;7.60;;;5.05;;
37647;SDS011;23490;53.656;10.076;2023-05-13T07:07:53;9.88;;;5.03;;
37647;SDS011;23490;53.656;10.076;2023-05-13T07:10:18;7.05;;;4.45;;
37647;SDS011;23490;53.656;10.076;2023-05-13T07:12:43;7.65;;;5.10;;
37647;SDS011;23490;53.656;10.076;2023-05-13T07:15:09;10.10;;;5.25;;
37647;SDS011;23490;53.656;10.076;2023-05-13T07:17:34;7.57;;;4.85;;
37647;SDS011;23490;53.656;10.076;2023-05-13T07:19:59;9.80;;;4.72;;
37647;SDS011;23490;53.656;10.076;2023-05-13T07:22:25;8.55;;;4.40;;
37647;SDS011;23490;53.656;10.076;2023-05-13T07:24:51;6.78;;;4.22;;
37647;SDS011;23490;53.656;10.076;2023-05-13T07:27:16;10.75;;;4.25;;
37647;SDS011;23490;53.656;10.076;2023-05-13T07:29:42;7.45;;;4.18;;
37647;SDS011;23490;53.656;10.076;2023-05-13T07:32:07;8.48;;;4.80;;
37647;SDS011;23490;53.656;10.076;2023-05-13T07:34:32;8.55;;;4.28;;
37647;SDS011;23490;53.656;10.076;2023-05-13T07:36:58;9.57;;;4.32;;
37647;SDS011;23490;53.656;10.076;2023-05-13T07:39:23;6.65;;;4.43;;
37647;SDS011;23490;53.656;10.076;2023-05-13T07:41:49;7.68;;;4.35;;
37647;SDS011;23490;53.656;10.076;2023-05-13T07:44:14;6.45;;;4.22;;
37647;SDS011;23490;53.656;10.076;2023-05-13T07:46:40;7.00;;;4.20;;
37647;SDS011;23490;53.656;10.076;2023-05-13T07:49:05;10.88;;;4.68;;
37647;SDS011;23490;53.656;10.076;2023-05-13T07:51:33;8.27;;;4.25;;
37647;SDS011;23490;53.656;10.076;2023-05-13T07:53:59;11.05;;;4.03;;
37647;SDS011;23490;53.656;10.076;2023-05-13T07:56:25;6.88;;;4.20;;
37647;SDS011;23490;53.656;10.076;2023-05-13T07:58:50;8.68;;;4.35;;
37647;SDS011;23490;53.656;10.076;2023-05-13T08:01:15;6.50;;;3.90;;
37647;SDS011;23490;53.656;10.076;2023-05-13T08:03:41;6.32;;;3.95;;
37647;SDS011;23490;53.656;10.076;2023-05-13T08:06:06;7.85;;;4.25;;
37647;SDS011;23490;53.656;10.076;2023-05-13T08:08:31;7.93;;;4.25;;
37647;SDS011;23490;53.656;10.076;2023-05-13T08:10:57;6.72;;;3.97;;
37647;SDS011;23490;53.656;10.076;2023-05-13T08:13:22;9.25;;;4.03;;
37647;SDS011;23490;53.656;10.076;2023-05-13T08:15:48;7.80;;;4.10;;
37647;SDS011;23490;53.656;10.076;2023-05-13T08:18:13;7.20;;;3.17;;
37647;SDS011;23490;53.656;10.076;2023-05-13T08:20:39;8.13;;;3.65;;
37647;SDS011;23490;53.656;10.076;2023-05-13T08:23:04;6.57;;;3.28;;
37647;SDS011;23490;53.656;10.076;2023-05-13T08:25:30;6.85;;;3.03;;
37647;SDS011;23490;53.656;10.076;2023-05-13T08:27:56;6.13;;;3.53;;
37647;SDS011;23490;53.656;10.076;2023-05-13T08:30:21;9.05;;;3.50;;
37647;SDS011;23490;53.656;10.076;2023-05-13T08:32:46;6.93;;;3.42;;
37647;SDS011;23490;53.656;10.076;2023-05-13T08:35:12;6.80;;;3.03;;
37647;SDS011;23490;53.656;10.076;2023-05-13T08:37:37;6.82;;;3.42;;
37647;SDS011;23490;53.656;10.076;2023-05-13T08:40:03;5.78;;;2.90;;
37647;SDS011;23490;53.656;10.076;2023-05-13T08:42:32;6.85;;;2.92;;
37647;SDS011;23490;53.656;10.076;2023-05-13T08:45:02;5.45;;;2.53;;
37647;SDS011;23490;53.656;10.076;2023-05-13T08:47:36;5.45;;;3.35;;
37647;SDS011;23490;53.656;10.076;2023-05-13T08:50:08;7.72;;;3.70;;
37647;SDS011;23490;53.656;10.076;2023-05-13T08:52:35;5.18;;;2.78;;
37647;SDS011;23490;53.656;10.076;2023-05-13T08:55:00;6.22;;;2.70;;
37647;SDS011;23490;53.656;10.076;2023-05-13T08:57:26;6.57;;;2.53;;
37647;SDS011;23490;53.656;10.076;2023-05-13T08:59:52;6.60;;;3.33;;
37647;SDS011;23490;53.656;10.076;2023-05-13T09:02:17;4.13;;;2.30;;
37647;SDS011;23490;53.656;10.076;2023-05-13T09:04:42;5.68;;;2.47;;
37647;SDS011;23490;53.656;10.076;2023-05-13T09:07:10;4.68;;;2.50;;
37647;SDS011;23490;53.656;10.076;2023-05-13T09:09:36;6.15;;;2.50;;
37647;SDS011;23490;53.656;10.076;2023-05-13T09:12:01;6.18;;;2.60;;
37647;SDS011;23490;53.656;10.076;2023-05-13T09:14:30;14.25;;;2.78;;
37647;SDS011;23490;53.656;10.076;2023-05-13T09:16:59;6.28;;;2.58;;
37647;SDS011;23490;53.656;10.076;2023-05-13T09:19:25;5.78;;;2.33;;
37647;SDS011;23490;53.656;10.076;2023-05-13T09:21:51;6.22;;;2.40;;
37647;SDS011;23490;53.656;10.076;2023-05-13T09:24:17;4.85;;;2.78;;
37647;SDS011;23490;53.656;10.076;2023-05-13T09:26:45;6.22;;;2.83;;
37647;SDS011;23490;53.656;10.076;2023-05-13T09:31:50;9.60;;;2.75;;
37647;SDS011;23490;53.656;10.076;2023-05-13T09:36:55;7.32;;;3.00;;
37647;SDS011;23490;53.656;10.076;2023-05-13T09:39:21;4.03;;;2.42;;
37647;SDS011;23490;53.656;10.076;2023-05-13T09:41:46;6.40;;;2.40;;
37647;SDS011;23490;53.656;10.076;2023-05-13T09:44:12;4.00;;;2.35;;
37647;SDS011;23490;53.656;10.076;2023-05-13T09:46:37;5.07;;;2.15;;
37647;SDS011;23490;53.656;10.076;2023-05-13T09:49:03;7.68;;;2.70;;
37647;SDS011;23490;53.656;10.076;2023-05-13T09:51:28;4.38;;;2.35;;
37647;SDS011;23490;53.656;10.076;2023-05-13T09:54:01;6.85;;;3.15;;
37647;SDS011;23490;53.656;10.076;2023-05-13T09:56:31;8.15;;;2.88;;
37647;SDS011;23490;53.656;10.076;2023-05-13T10:01:26;4.32;;;2.33;;
37647;SDS011;23490;53.656;10.076;2023-05-13T10:03:53;6.85;;;2.63;;
37647;SDS011;23490;53.656;10.076;2023-05-13T10:06:20;3.42;;;2.35;;
37647;SDS011;23490;53.656;10.076;2023-05-13T10:11:15;6.65;;;2.30;;
37647;SDS011;23490;53.656;10.076;2023-05-13T10:13:42;5.45;;;2.63;;
37647;SDS011;23490;53.656;10.076;2023-05-13T10:16:14;5.25;;;2.40;;
37647;SDS011;23490;53.656;10.076;2023-05-13T10:18:42;4.85;;;2.38;;
37647;SDS011;23490;53.656;10.076;2023-05-13T10:21:08;6.82;;;2.40;;
37647;SDS011;23490;53.656;10.076;2023-05-13T10:23:33;6.60;;;2.58;;
37647;SDS011;23490;53.656;10.076;2023-05-13T10:25:59;4.32;;;2.70;;
37647;SDS011;23490;53.656;10.076;2023-05-13T10:28:25;5.57;;;2.50;;
37647;SDS011;23490;53.656;10.076;2023-05-13T10:30:52;3.40;;;2.10;;
37647;SDS011;23490;53.656;10.076;2023-05-13T10:33:17;5.90;;;2.30;;
37647;SDS011;23490;53.656;10.076;2023-05-13T10:36:00;5.22;;;2.42;;
37647;SDS011;23490;53.656;10.076;2023-05-13T10:44:32;5.40;;;2.38;;
37647;SDS011;23490;53.656;10.076;2023-05-13T10:46:57;5.75;;;2.63;;
37647;SDS011;23490;53.656;10.076;2023-05-13T10:49:23;5.45;;;2.55;;
37647;SDS011;23490;53.656;10.076;2023-05-13T10:51:51;4.83;;;2.40;;
37647;SDS011;23490;53.656;10.076;2023-05-13T10:54:20;4.22;;;2.45;;
37647;SDS011;23490;53.656;10.076;2023-05-13T10:56:55;5.28;;;2.70;;
37647;SDS011;23490;53.656;10.076;2023-05-13T10:59:21;4.20;;;2.50;;
37647;SDS011;23490;53.656;10.076;2023-05-13T11:01:47;4.93;;;2.30;;
37647;SDS011;23490;53.656;10.076;2023-05-13T11:04:14;5.53;;;2.25;;
37647;SDS011;23490;53.656;10.076;2023-05-13T11:06:41;4.03;;;2.38;;
37647;SDS011;23490;53.656;10.076;2023-05-13T11:09:11;6.78;;;2.35;;
37647;SDS011;23490;53.656;10.076;2023-05-13T11:11:46;6.50;;;2.55;;
37647;SDS011;23490;53.656;10.076;2023-05-13T11:14:19;5.53;;;2.50;;
37647;SDS011;23490;53.656;10.076;2023-05-13T11:16:51;4.60;;;2.25;;
37647;SDS011;23490;53.656;10.076;2023-05-13T11:19:22;3.13;;;2.10;;
37647;SDS011;23490;53.656;10.076;2023-05-13T11:21:54;7.07;;;2.42;;
37647;SDS011;23490;53.656;10.076;2023-05-13T11:24:21;2.92;;;2.00;;
37647;SDS011;23490;53.656;10.076;2023-05-13T11:26:48;4.97;;;2.17;;
37647;SDS011;23490;53.656;10.076;2023-05-13T11:29:34;4.38;;;2.42;;
37647;SDS011;23490;53.656;10.076;2023-05-13T11:32:02;5.05;;;2.65;;
37647;SDS011;23490;53.656;10.076;2023-05-13T11:34:29;4.68;;;2.10;;
37647;SDS011;23490;53.656;10.076;2023-05-13T11:37:06;6.15;;;2.17;;
37647;SDS011;23490;53.656;10.076;2023-05-13T11:39:32;5.00;;;2.10;;
37647;SDS011;23490;53.656;10.076;2023-05-13T11:41:59;6.43;;;2.55;;
37647;SDS011;23490;53.656;10.076;2023-05-13T11:44:27;5.43;;;2.13;;
37647;SDS011;23490;53.656;10.076;2023-05-13T11:46:55;4.60;;;2.08;;
37647;SDS011;23490;53.656;10.076;2023-05-13T11:52:05;3.63;;;2.10;;
37647;SDS011;23490;53.656;10.076;2023-05-13T11:54:39;4.18;;;2.50;;
37647;SDS011;23490;53.656;10.076;2023-05-13T12:02:32;3.53;;;2.45;;
37647;SDS011;23490;53.656;10.076;2023-05-13T12:05:02;4.80;;;1.80;;
37647;SDS011;23490;53.656;10.076;2023-05-13T12:07:29;3.55;;;2.15;;
37647;SDS011;23490;53.656;10.076;2023-05-13T12:09:56;5.88;;;2.33;;
37647;SDS011;23490;53.656;10.076;2023-05-13T12:12:22;4.18;;;1.95;;
37647;SDS011;23490;53.656;10.076;2023-05-13T12:14:48;4.78;;;1.95;;
37647;SDS011;23490;53.656;10.076;2023-05-13T12:17:15;5.07;;;2.22;;
37647;SDS011;23490;53.656;10.076;2023-05-13T12:30:44;6.45;;;2.05;;
37647;SDS011;23490;53.656;10.076;2023-05-13T12:35:49;4.82;;;3.03;;
37647;SDS011;23490;53.656;10.076;2023-05-13T12:38:16;7.25;;;2.35;;
37647;SDS011;23490;53.656;10.076;2023-05-13T12:40:44;4.40;;;2.25;;
37647;SDS011;23490;53.656;10.076;2023-05-13T12:43:10;4.53;;;2.00;;
37647;SDS011;23490;53.656;10.076;2023-05-13T12:45:37;3.65;;;2.08;;
37647;SDS011;23490;53.656;10.076;2023-05-13T12:48:04;3.88;;;1.88;;
37647;SDS011;23490;53.656;10.076;2023-05-13T12:50:30;4.80;;;2.03;;
37647;SDS011;23490;53.656;10.076;2023-05-13T12:52:55;3.90;;;1.95;;
37647;SDS011;23490;53.656;10.076;2023-05-13T12:55:26;2.90;;;1.95;;
37647;SDS011;23490;53.656;10.076;2023-05-13T13:00:24;3.80;;;1.80;;
37647;SDS011;23490;53.656;10.076;2023-05-13T13:02:49;4.20;;;2.47;;
37647;SDS011;23490;53.656;10.076;2023-05-13T13:05:17;3.83;;;1.80;;
37647;SDS011;23490;53.656;10.076;2023-05-13T13:07:42;7.93;;;2.35;;
37647;SDS011;23490;53.656;10.076;2023-05-13T13:10:08;3.72;;;2.00;;
37647;SDS011;23490;53.656;10.076;2023-05-13T13:12:33;4.80;;;2.00;;
37647;SDS011;23490;53.656;10.076;2023-05-13T13:14:59;4.40;;;1.75;;
37647;SDS011;23490;53.656;10.076;2023-05-13T13:17:26;3.33;;;1.92;;
37647;SDS011;23490;53.656;10.076;2023-05-13T13:19:51;3.45;;;1.90;;
37647;SDS011;23490;53.656;10.076;2023-05-13T13:22:16;6.28;;;2.20;;
37647;SDS011;23490;53.656;10.076;2023-05-13T13:24:42;3.45;;;1.88;;
37647;SDS011;23490;53.656;10.076;2023-05-13T13:27:08;4.25;;;2.20;;
37647;SDS011;23490;53.656;10.076;2023-05-13T13:29:35;3.10;;;2.20;;
37647;SDS011;23490;53.656;10.076;2023-05-13T13:32:00;5.28;;;1.80;;
37647;SDS011;23490;53.656;10.076;2023-05-13T13:34:25;4.45;;;1.90;;
37647;SDS011;23490;53.656;10.076;2023-05-13T13:36:51;5.35;;;2.15;;
37647;SDS011;23490;53.656;10.076;2023-05-13T13:39:16;2.88;;;2.00;;
37647;SDS011;23490;53.656;10.076;2023-05-13T13:41:42;3.97;;;2.03;;
37647;SDS011;23490;53.656;10.076;2023-05-13T13:44:07;3.30;;;1.60;;
37647;SDS011;23490;53.656;10.076;2023-05-13T13:46:33;3.95;;;1.77;;
37647;SDS011;23490;53.656;10.076;2023-05-13T13:48:58;4.45;;;2.17;;
37647;SDS011;23490;53.656;10.076;2023-05-13T13:51:23;4.50;;;1.60;;
37647;SDS011;23490;53.656;10.076;2023-05-13T13:53:49;2.42;;;1.65;;
37647;SDS011;23490;53.656;10.076;2023-05-13T13:56:14;5.22;;;1.88;;
37647;SDS011;23490;53.656;10.076;2023-05-13T13:58:40;4.88;;;1.75;;
37647;SDS011;23490;53.656;10.076;2023-05-13T14:01:05;1.83;;;1.63;;
37647;SDS011;23490;53.656;10.076;2023-05-13T14:03:31;3.15;;;2.00;;
37647;SDS011;23490;53.656;10.076;2023-05-13T14:05:56;3.83;;;1.80;;
37647;SDS011;23490;53.656;10.076;2023-05-13T14:08:21;4.07;;;1.63;;
37647;SDS011;23490;53.656;10.076;2023-05-13T14:10:47;3.25;;;1.75;;
37647;SDS011;23490;53.656;10.076;2023-05-13T14:13:12;6.07;;;2.13;;
37647;SDS011;23490;53.656;10.076;2023-05-13T14:15:38;2.95;;;1.77;;
37647;SDS011;23490;53.656;10.076;2023-05-13T14:18:03;3.30;;;1.88;;
37647;SDS011;23490;53.656;10.076;2023-05-13T14:20:33;3.50;;;2.08;;
37647;SDS011;23490;53.656;10.076;2023-05-13T14:22:59;4.43;;;2.10;;
37647;SDS011;23490;53.656;10.076;2023-05-13T14:25:25;6.60;;;1.80;;
37647;SDS011;23490;53.656;10.076;2023-05-13T14:27:51;2.35;;;1.73;;
37647;SDS011;23490;53.656;10.076;2023-05-13T14:30:17;5.00;;;1.80;;
37647;SDS011;23490;53.656;10.076;2023-05-13T14:32:42;4.85;;;2.33;;
37647;SDS011;23490;53.656;10.076;2023-05-13T14:35:11;3.17;;;1.88;;
37647;SDS011;23490;53.656;10.076;2023-05-13T14:37:37;3.75;;;1.92;;
37647;SDS011;23490;53.656;10.076;2023-05-13T14:40:03;6.80;;;1.70;;
37647;SDS011;23490;53.656;10.076;2023-05-13T14:42:28;4.55;;;1.83;;
37647;SDS011;23490;53.656;10.076;2023-05-13T14:44:53;5.65;;;2.15;;
37647;SDS011;23490;53.656;10.076;2023-05-13T14:47:19;3.38;;;1.70;;
37647;SDS011;23490;53.656;10.076;2023-05-13T14:49:44;3.78;;;1.67;;
37647;SDS011;23490;53.656;10.076;2023-05-13T14:52:10;2.95;;;1.63;;
37647;SDS011;23490;53.656;10.076;2023-05-13T14:54:35;3.20;;;1.80;;
37647;SDS011;23490;53.656;10.076;2023-05-13T14:57:02;4.95;;;1.83;;
37647;SDS011;23490;53.656;10.076;2023-05-13T14:59:29;5.22;;;1.88;;
37647;SDS011;23490;53.656;10.076;2023-05-13T15:01:55;3.92;;;1.80;;
37647;SDS011;23490;53.656;10.076;2023-05-13T15:04:20;5.78;;;1.60;;
37647;SDS011;23490;53.656;10.076;2023-05-13T15:06:45;3.58;;;2.08;;